createdAt,value
2022-12-26T00:00:23.914Z,10.61
2022-12-26T00:01:23.811Z,10.51
2022-12-26T00:02:23.838Z,10.56
2022-12-26T00:03:23.898Z,10.57
2022-12-26T00:04:52.302Z,10.57
2022-12-26T00:05:24.750Z,10.57
2022-12-26T00:06:23.754Z,10.56
2022-12-26T00:07:23.743Z,10.53
2022-12-26T00:08:23.731Z,10.60
2022-12-26T00:09:23.736Z,10.57
2022-12-26T00:10:23.707Z,10.53
2022-12-26T00:11:23.695Z,10.53
2022-12-26T00:12:23.700Z,10.56
2022-12-26T00:13:39.913Z,10.60
2022-12-26T00:14:24.687Z,10.56
2022-12-26T00:15:23.672Z,10.51
2022-12-26T00:16:23.689Z,10.60
2022-12-26T00:17:23.647Z,10.53
2022-12-26T00:18:23.637Z,10.60
2022-12-26T00:19:23.623Z,10.57
2022-12-26T00:21:29.914Z,10.64
2022-12-26T00:22:29.896Z,10.53
2022-12-26T00:23:29.897Z,10.59
2022-12-26T00:24:29.894Z,10.56
2022-12-26T00:25:30.967Z,10.63
2022-12-26T00:27:24.391Z,10.67
2022-12-26T00:28:24.388Z,10.63
2022-12-26T00:29:25.375Z,10.63
2022-12-26T00:30:24.368Z,10.64
2022-12-26T00:31:25.310Z,10.56
2022-12-26T00:32:25.490Z,10.64
2022-12-26T00:33:25.436Z,10.69
2022-12-26T00:34:25.477Z,10.56
2022-12-26T00:35:25.441Z,10.72
2022-12-26T00:36:25.436Z,10.61
2022-12-26T00:37:25.410Z,10.71
2022-12-26T00:38:25.403Z,10.74
2022-12-26T00:39:25.396Z,10.63
2022-12-26T00:40:25.386Z,10.68
2022-12-26T00:41:25.379Z,10.72
2022-12-26T00:43:32.262Z,10.64
2022-12-26T00:44:32.260Z,10.71
2022-12-26T00:45:32.251Z,10.69
2022-12-26T00:46:33.432Z,10.69
2022-12-26T00:47:33.342Z,10.81
2022-12-26T00:48:33.322Z,10.81
2022-12-26T00:50:14.948Z,10.86
2022-12-26T00:50:34.993Z,10.72
2022-12-26T00:51:34.302Z,10.90
2022-12-26T00:52:35.080Z,10.81
2022-12-26T00:53:33.274Z,10.78
2022-12-26T00:54:33.278Z,10.79
2022-12-26T00:55:33.257Z,10.96
2022-12-26T00:56:33.253Z,10.84
2022-12-26T00:57:34.253Z,10.92
2022-12-26T00:58:33.241Z,10.89
2022-12-26T00:59:33.229Z,10.90
2022-12-26T01:00:33.241Z,10.86
2022-12-26T01:01:35.256Z,10.82
2022-12-26T01:02:33.334Z,10.92
2022-12-26T01:03:35.072Z,10.90
2022-12-26T01:04:33.192Z,10.90
2022-12-26T01:05:33.190Z,10.89
2022-12-26T01:06:33.177Z,10.96
2022-12-26T01:07:33.166Z,10.97
2022-12-26T01:08:33.152Z,10.97
2022-12-26T01:09:33.137Z,10.96
2022-12-26T01:10:35.661Z,10.89
2022-12-26T01:11:33.127Z,10.97
2022-12-26T01:12:33.137Z,10.96
2022-12-26T01:13:33.117Z,10.99
2022-12-26T01:14:34.094Z,11.08
2022-12-26T01:15:33.096Z,11.10
2022-12-26T01:16:33.186Z,11.10
2022-12-26T01:17:33.096Z,11.10
2022-12-26T01:18:33.115Z,11.17
2022-12-26T01:19:33.060Z,11.15
2022-12-26T01:20:33.067Z,11.18
2022-12-26T01:21:33.058Z,11.15
2022-12-26T01:22:33.041Z,11.19
2022-12-26T01:23:33.036Z,11.08
2022-12-26T01:24:33.026Z,11.04
2022-12-26T01:25:33.007Z,11.11
2022-12-26T01:26:33.010Z,11.10
2022-12-26T01:27:32.998Z,11.12
2022-12-26T01:28:33.031Z,11.15
2022-12-26T01:29:32.993Z,11.19
2022-12-26T01:30:32.976Z,11.17
2022-12-26T01:31:33.635Z,11.15
2022-12-26T01:32:32.990Z,11.19
2022-12-26T01:33:32.939Z,11.29
2022-12-26T01:34:32.942Z,11.30
2022-12-26T01:35:32.933Z,11.32
2022-12-26T01:36:32.941Z,11.32
2022-12-26T01:37:33.183Z,11.29
2022-12-26T01:38:32.896Z,11.25
2022-12-26T01:39:32.891Z,11.32
2022-12-26T01:40:32.895Z,11.23
2022-12-26T01:41:33.672Z,11.27
2022-12-26T01:42:32.882Z,11.18
2022-12-26T01:43:32.865Z,11.23
2022-12-26T01:44:32.852Z,11.17
2022-12-26T01:45:32.928Z,11.32
2022-12-26T01:46:32.850Z,11.30
2022-12-26T01:47:32.843Z,11.26
2022-12-26T01:48:32.830Z,11.17
2022-12-26T01:49:32.838Z,11.22
2022-12-26T01:50:32.816Z,11.30
2022-12-26T01:51:32.808Z,11.25
2022-12-26T01:52:32.798Z,11.23
2022-12-26T01:53:32.781Z,11.35
2022-12-26T01:54:37.602Z,11.26
2022-12-26T01:55:33.791Z,11.25
2022-12-26T01:56:32.769Z,11.29
2022-12-26T01:57:32.756Z,11.26
2022-12-26T01:58:32.816Z,11.27
2022-12-26T01:59:32.735Z,11.32
2022-12-26T02:00:32.737Z,11.26
2022-12-26T02:01:32.942Z,11.32
2022-12-26T02:02:32.795Z,11.35
2022-12-26T02:03:32.710Z,11.36
2022-12-26T02:04:32.696Z,11.30
2022-12-26T02:05:32.699Z,11.33
2022-12-26T02:06:32.681Z,11.32
2022-12-26T02:07:32.673Z,11.40
2022-12-26T02:08:32.668Z,11.27
2022-12-26T02:09:32.650Z,11.35
2022-12-26T02:10:32.647Z,11.33
2022-12-26T02:11:33.600Z,11.35
2022-12-26T02:12:34.238Z,11.35
2022-12-26T02:13:33.620Z,11.43
2022-12-26T02:14:32.619Z,11.36
2022-12-26T02:15:32.618Z,11.40
2022-12-26T02:16:32.666Z,11.40
2022-12-26T02:17:32.611Z,11.37
2022-12-26T02:18:32.594Z,11.40
2022-12-26T02:19:32.588Z,11.41
2022-12-26T02:20:32.582Z,11.44
2022-12-26T02:21:32.601Z,11.44
2022-12-26T02:22:32.553Z,11.40
2022-12-26T02:23:32.564Z,11.43
2022-12-26T02:24:32.538Z,11.33
2022-12-26T02:25:32.538Z,11.44
2022-12-26T02:26:32.509Z,11.29
2022-12-26T02:27:32.513Z,11.36
2022-12-26T02:28:32.500Z,11.40
2022-12-26T02:29:32.492Z,11.37
2022-12-26T02:30:32.487Z,11.30
2022-12-26T02:31:32.536Z,11.44
2022-12-26T02:32:32.480Z,11.40
2022-12-26T02:33:32.455Z,11.40
2022-12-26T02:34:32.455Z,11.44
2022-12-26T02:35:32.441Z,11.35
2022-12-26T02:36:32.431Z,11.40
2022-12-26T02:37:32.442Z,11.41
2022-12-26T02:38:32.419Z,11.43
2022-12-26T02:39:45.226Z,11.44
2022-12-26T02:40:33.408Z,11.40
2022-12-26T02:41:32.397Z,11.30
2022-12-26T02:42:32.386Z,11.44
2022-12-26T02:43:32.381Z,11.33
2022-12-26T02:44:32.366Z,11.32
2022-12-26T02:45:32.434Z,11.41
2022-12-26T02:46:32.434Z,11.33
2022-12-26T02:47:32.338Z,11.30
2022-12-26T02:48:32.337Z,11.37
2022-12-26T02:49:32.332Z,11.37
2022-12-26T02:50:32.310Z,11.33
2022-12-26T02:51:32.320Z,11.36
2022-12-26T02:52:32.300Z,11.35
2022-12-26T02:53:33.208Z,11.40
2022-12-26T02:54:32.277Z,11.30
2022-12-26T02:55:32.285Z,11.29
2022-12-26T02:56:32.269Z,11.40
2022-12-26T02:57:32.256Z,11.35
2022-12-26T02:58:32.265Z,11.44
2022-12-26T02:59:54.406Z,11.36
2022-12-26T03:00:33.237Z,11.35
2022-12-26T03:01:32.335Z,11.52
2022-12-26T03:02:32.443Z,11.37
2022-12-26T03:03:32.343Z,11.43
2022-12-26T03:04:32.202Z,11.41
2022-12-26T03:05:32.183Z,11.36
2022-12-26T03:06:33.198Z,11.45
2022-12-26T03:07:32.189Z,11.35
2022-12-26T03:08:32.156Z,11.43
2022-12-26T03:09:33.168Z,11.47
2022-12-26T03:10:32.146Z,11.47
2022-12-26T03:11:32.145Z,11.47
2022-12-26T03:12:32.157Z,11.48
2022-12-26T03:13:32.138Z,11.43
2022-12-26T03:14:32.124Z,11.44
2022-12-26T03:15:32.126Z,11.41
2022-12-26T03:16:32.212Z,11.50
2022-12-26T03:17:32.103Z,11.35
2022-12-26T03:18:57.044Z,11.40
2022-12-26T03:19:33.105Z,11.35
2022-12-26T03:20:32.082Z,11.40
2022-12-26T03:21:32.080Z,11.40
2022-12-26T03:22:32.084Z,11.43
2022-12-26T03:23:32.687Z,11.41
2022-12-26T03:24:32.050Z,11.37
2022-12-26T03:25:32.032Z,11.36
2022-12-26T03:26:32.024Z,11.36
2022-12-26T03:27:32.597Z,11.36
2022-12-26T03:28:32.691Z,11.51
2022-12-26T03:29:32.012Z,11.48
2022-12-26T03:30:32.040Z,11.40
2022-12-26T03:31:31.989Z,11.33
2022-12-26T03:32:31.983Z,11.32
2022-12-26T03:33:31.980Z,11.30
2022-12-26T03:34:31.977Z,11.32
2022-12-26T03:35:31.961Z,11.30
2022-12-26T03:36:31.969Z,11.40
2022-12-26T03:37:47.830Z,11.30
2022-12-26T03:38:32.943Z,11.35
2022-12-26T03:39:31.918Z,11.30
2022-12-26T03:40:31.918Z,11.36
2022-12-26T03:41:31.915Z,11.44
2022-12-26T03:42:31.896Z,11.40
2022-12-26T03:43:31.900Z,11.41
2022-12-26T03:44:31.893Z,11.33
2022-12-26T03:45:31.869Z,11.36
2022-12-26T03:46:31.934Z,11.33
2022-12-26T03:47:31.857Z,11.43
2022-12-26T03:48:31.848Z,11.33
2022-12-26T03:49:31.849Z,11.37
2022-12-26T03:50:31.837Z,11.35
2022-12-26T03:51:31.827Z,11.36
2022-12-26T03:52:31.821Z,11.27
2022-12-26T03:53:31.815Z,11.40
2022-12-26T03:54:31.816Z,11.37
2022-12-26T03:55:31.790Z,11.32
2022-12-26T03:56:32.839Z,11.41
2022-12-26T03:57:32.793Z,11.37
2022-12-26T03:58:31.796Z,11.40
2022-12-26T03:59:31.817Z,11.43
2022-12-26T04:00:31.786Z,11.43
2022-12-26T04:01:31.791Z,11.43
2022-12-26T04:02:31.899Z,11.43
2022-12-26T04:03:31.763Z,11.35
2022-12-26T04:04:31.735Z,11.36
2022-12-26T04:05:31.744Z,11.36
2022-12-26T04:06:31.734Z,11.48
2022-12-26T04:07:31.707Z,11.41
2022-12-26T04:08:31.715Z,11.40
2022-12-26T04:09:31.703Z,11.41
2022-12-26T04:10:31.685Z,11.37
2022-12-26T04:11:31.674Z,11.35
2022-12-26T04:12:31.663Z,11.27
2022-12-26T04:13:31.672Z,11.35
2022-12-26T04:14:31.658Z,11.32
2022-12-26T04:15:31.685Z,11.30
2022-12-26T04:16:31.652Z,11.29
2022-12-26T04:17:31.630Z,11.36
2022-12-26T04:18:31.621Z,11.37
2022-12-26T04:19:31.634Z,11.44
2022-12-26T04:20:32.212Z,11.45
2022-12-26T04:21:31.586Z,11.43
2022-12-26T04:22:31.588Z,11.37
2022-12-26T04:23:31.589Z,11.40
2022-12-26T04:24:31.573Z,11.40
2022-12-26T04:25:50.155Z,11.45
2022-12-26T04:26:32.549Z,11.36
2022-12-26T04:27:31.570Z,11.29
2022-12-26T04:28:31.551Z,11.30
2022-12-26T04:29:32.138Z,11.29
2022-12-26T04:30:31.632Z,11.27
2022-12-26T04:31:31.595Z,11.30
2022-12-26T04:32:31.500Z,11.29
2022-12-26T04:33:31.504Z,11.27
2022-12-26T04:34:31.521Z,11.26
2022-12-26T04:35:31.489Z,11.18
2022-12-26T04:36:31.473Z,11.22
2022-12-26T04:37:31.461Z,11.17
2022-12-26T04:38:31.476Z,11.10
2022-12-26T04:39:31.449Z,11.18
2022-12-26T04:40:31.450Z,11.11
2022-12-26T04:41:31.444Z,11.11
2022-12-26T04:42:31.423Z,11.11
2022-12-26T04:43:46.639Z,11.05
2022-12-26T04:44:32.422Z,11.11
2022-12-26T04:45:31.400Z,11.14
2022-12-26T04:46:31.523Z,11.11
2022-12-26T04:47:31.393Z,11.17
2022-12-26T04:48:31.377Z,11.12
2022-12-26T04:49:31.390Z,11.11
2022-12-26T04:50:31.372Z,11.10
2022-12-26T04:51:31.360Z,11.04
2022-12-26T04:52:31.345Z,11.08
2022-12-26T04:53:31.339Z,11.04
2022-12-26T04:54:31.323Z,11.02
2022-12-26T04:55:31.346Z,10.99
2022-12-26T04:56:31.329Z,10.92
2022-12-26T04:57:31.303Z,10.84
2022-12-26T04:58:31.298Z,10.81
2022-12-26T04:59:31.278Z,10.82
2022-12-26T05:00:31.274Z,10.81
2022-12-26T05:01:31.430Z,10.75
2022-12-26T05:02:31.436Z,10.84
2022-12-26T05:03:31.278Z,10.81
2022-12-26T05:04:31.253Z,10.69
2022-12-26T05:05:32.135Z,10.72
2022-12-26T05:06:31.229Z,10.68
2022-12-26T05:07:31.225Z,10.75
2022-12-26T05:08:31.212Z,10.71
2022-12-26T05:09:31.203Z,10.79
2022-12-26T05:10:31.193Z,10.72
2022-12-26T05:11:31.205Z,10.68
2022-12-26T05:12:31.189Z,10.59
2022-12-26T05:13:31.173Z,10.67
2022-12-26T05:15:37.987Z,10.54
2022-12-26T05:16:37.926Z,10.49
2022-12-26T05:17:37.930Z,10.54
2022-12-26T05:18:37.938Z,10.42
2022-12-26T05:19:37.905Z,10.41
2022-12-26T05:20:37.896Z,10.35
2022-12-26T05:21:37.912Z,10.38
2022-12-26T05:22:37.890Z,10.31
2022-12-26T05:23:37.904Z,10.33
2022-12-26T05:24:37.872Z,10.34
2022-12-26T05:25:38.952Z,10.35
2022-12-26T05:26:38.956Z,10.38
2022-12-26T05:27:38.936Z,10.40
2022-12-26T05:28:38.941Z,10.41
2022-12-26T05:29:38.919Z,10.37
2022-12-26T05:30:38.932Z,10.49
2022-12-26T05:31:38.966Z,10.44
2022-12-26T05:32:38.892Z,10.51
2022-12-26T05:33:38.902Z,10.44
2022-12-26T05:34:39.398Z,10.53
2022-12-26T05:35:38.904Z,10.51
2022-12-26T05:36:38.881Z,10.60
2022-12-26T05:37:38.899Z,10.53
2022-12-26T05:38:38.857Z,10.61
2022-12-26T05:39:38.841Z,10.51
2022-12-26T05:40:38.853Z,10.51
2022-12-26T05:41:38.828Z,10.40
2022-12-26T05:42:38.846Z,10.38
2022-12-26T05:43:38.809Z,10.31
2022-12-26T05:44:39.817Z,10.33
2022-12-26T05:45:38.797Z,10.35
2022-12-26T05:46:38.844Z,10.35
2022-12-26T05:47:38.788Z,10.37
2022-12-26T05:48:38.777Z,10.42
2022-12-26T05:49:38.776Z,10.49
2022-12-26T05:50:38.746Z,10.40
2022-12-26T05:51:39.758Z,10.40
2022-12-26T05:52:38.757Z,10.44
2022-12-26T05:53:38.744Z,10.41
2022-12-26T05:54:38.739Z,10.42
2022-12-26T05:55:38.721Z,10.42
2022-12-26T05:56:40.906Z,10.42
2022-12-26T05:57:40.301Z,10.53
2022-12-26T05:58:38.699Z,10.51
2022-12-26T05:59:38.686Z,10.42
2022-12-26T06:00:38.675Z,10.41
2022-12-26T06:01:38.845Z,10.51
2022-12-26T06:02:38.783Z,10.51
2022-12-26T06:03:38.743Z,10.59
2022-12-26T06:04:38.643Z,10.60
2022-12-26T06:05:38.641Z,10.57
2022-12-26T06:06:38.647Z,10.56
2022-12-26T06:07:38.622Z,10.56
2022-12-26T06:08:38.613Z,10.61
2022-12-26T06:09:38.622Z,10.61
2022-12-26T06:10:38.617Z,10.60
2022-12-26T06:11:42.530Z,10.48
2022-12-26T06:12:39.593Z,10.38
2022-12-26T06:13:38.573Z,10.44
2022-12-26T06:14:38.573Z,10.35
2022-12-26T06:15:38.564Z,10.37
2022-12-26T06:16:38.629Z,10.38
2022-12-26T06:17:38.539Z,10.41
2022-12-26T06:18:38.530Z,10.46
2022-12-26T06:19:44.679Z,10.49
2022-12-26T06:20:40.528Z,10.60
2022-12-26T06:21:38.508Z,10.59
2022-12-26T06:22:38.510Z,10.60
2022-12-26T06:23:38.499Z,10.51
2022-12-26T06:24:38.467Z,10.57
2022-12-26T06:25:39.497Z,10.61
2022-12-26T06:26:38.486Z,10.61
2022-12-26T06:27:38.484Z,10.56
2022-12-26T06:28:38.465Z,10.63
2022-12-26T06:29:39.443Z,10.64
2022-12-26T06:30:38.444Z,10.61
2022-12-26T06:31:38.468Z,10.68
2022-12-26T06:32:38.417Z,10.64
2022-12-26T06:33:38.419Z,10.68
2022-12-26T06:34:38.408Z,10.63
2022-12-26T06:35:38.402Z,10.76
2022-12-26T06:36:38.393Z,10.78
2022-12-26T06:37:38.517Z,10.78
2022-12-26T06:38:38.371Z,10.82
2022-12-26T06:39:39.901Z,10.82
2022-12-26T06:40:38.362Z,10.87
2022-12-26T06:41:38.373Z,10.69
2022-12-26T06:42:38.348Z,10.78
2022-12-26T06:43:38.341Z,10.75
2022-12-26T06:44:38.331Z,10.64
2022-12-26T06:45:38.327Z,10.59
2022-12-26T06:46:38.359Z,10.74
2022-12-26T06:47:38.319Z,10.68
2022-12-26T06:48:38.302Z,10.64
2022-12-26T06:49:38.288Z,10.67
2022-12-26T06:50:38.290Z,10.84
2022-12-26T06:51:38.302Z,10.87
2022-12-26T06:52:38.267Z,10.75
2022-12-26T06:53:38.279Z,10.69
2022-12-26T06:54:38.256Z,10.86
2022-12-26T06:55:38.241Z,10.86
2022-12-26T06:56:38.231Z,10.81
2022-12-26T06:57:38.223Z,10.81
2022-12-26T06:58:38.233Z,10.89
2022-12-26T06:59:38.234Z,10.82
2022-12-26T07:00:38.248Z,10.78
2022-12-26T07:01:38.454Z,10.69
2022-12-26T07:02:38.337Z,10.71
2022-12-26T07:03:38.197Z,10.81
2022-12-26T07:04:38.177Z,10.76
2022-12-26T07:05:38.188Z,10.79
2022-12-26T07:06:38.161Z,10.72
2022-12-26T07:07:38.160Z,10.69
2022-12-26T07:08:38.827Z,10.81
2022-12-26T07:09:38.128Z,10.76
2022-12-26T07:10:38.116Z,10.79
2022-12-26T07:11:38.113Z,10.71
2022-12-26T07:12:38.133Z,10.78
2022-12-26T07:13:38.120Z,10.79
2022-12-26T07:14:38.088Z,10.89
2022-12-26T07:15:38.091Z,10.82
2022-12-26T07:16:38.114Z,10.84
2022-12-26T07:17:38.076Z,10.81
2022-12-26T07:18:38.123Z,10.93
2022-12-26T07:19:38.066Z,10.82
2022-12-26T07:20:38.051Z,10.84
2022-12-26T07:21:40.672Z,10.94
2022-12-26T07:22:39.020Z,10.93
2022-12-26T07:23:38.023Z,10.86
2022-12-26T07:24:38.014Z,11.11
2022-12-26T07:25:38.004Z,11.05
2022-12-26T07:26:37.998Z,11.05
2022-12-26T07:27:37.982Z,11.05
2022-12-26T07:28:37.984Z,11.07
2022-12-26T07:29:38.047Z,11.10
2022-12-26T07:30:38.913Z,11.07
2022-12-26T07:31:38.003Z,11.05
2022-12-26T07:32:41.905Z,11.14
2022-12-26T07:33:37.961Z,11.18
2022-12-26T07:34:39.011Z,11.18
2022-12-26T07:35:38.982Z,11.22
2022-12-26T07:36:37.926Z,11.30
2022-12-26T07:37:37.898Z,11.18
2022-12-26T07:38:38.087Z,11.22
2022-12-26T07:39:37.892Z,11.19
2022-12-26T07:40:37.977Z,11.14
2022-12-26T07:41:37.867Z,11.10
2022-12-26T07:42:39.405Z,11.05
2022-12-26T07:43:38.852Z,11.10
2022-12-26T07:44:37.931Z,10.99
2022-12-26T07:45:45.042Z,11.02
2022-12-26T07:46:39.995Z,11.10
2022-12-26T07:47:37.828Z,11.05
2022-12-26T07:48:37.821Z,11.05
2022-12-26T07:49:37.830Z,11.02
2022-12-26T07:50:37.803Z,10.93
2022-12-26T07:51:37.792Z,11.02
2022-12-26T07:52:37.844Z,10.99
2022-12-26T07:53:37.786Z,11.07
2022-12-26T07:54:37.773Z,11.00
2022-12-26T07:55:37.769Z,11.00
2022-12-26T07:56:37.752Z,11.08
2022-12-26T07:57:48.764Z,11.07
2022-12-26T07:58:39.734Z,11.04
2022-12-26T07:59:37.726Z,11.08
2022-12-26T08:00:38.340Z,11.05
2022-12-26T08:01:37.789Z,11.04
2022-12-26T08:02:39.090Z,11.07
2022-12-26T08:03:37.771Z,11.08
2022-12-26T08:04:37.691Z,11.05
2022-12-26T08:05:37.681Z,11.07
2022-12-26T08:06:37.666Z,11.04
2022-12-26T08:07:37.671Z,11.00
2022-12-26T08:08:42.897Z,10.96
2022-12-26T08:09:38.658Z,10.92
2022-12-26T08:10:39.413Z,10.87
2022-12-26T08:11:37.657Z,10.76
2022-12-26T08:12:37.617Z,10.87
2022-12-26T08:13:37.610Z,10.89
2022-12-26T08:14:37.616Z,10.79
2022-12-26T08:15:37.601Z,10.84
2022-12-26T08:16:37.633Z,10.92
2022-12-26T08:17:37.633Z,10.90
2022-12-26T08:18:37.588Z,10.78
2022-12-26T08:19:37.557Z,10.76
2022-12-26T08:20:37.555Z,10.93
2022-12-26T08:21:37.551Z,10.86
2022-12-26T08:22:37.536Z,10.94
2022-12-26T08:23:37.532Z,10.87
2022-12-26T08:24:37.531Z,10.76
2022-12-26T08:25:37.513Z,10.86
2022-12-26T08:26:37.516Z,10.84
2022-12-26T08:27:37.544Z,10.89
2022-12-26T08:28:37.510Z,10.87
2022-12-26T08:29:37.481Z,10.79
2022-12-26T08:30:37.488Z,10.92
2022-12-26T08:31:37.489Z,10.89
2022-12-26T08:32:39.533Z,10.94
2022-12-26T08:33:38.461Z,10.99
2022-12-26T08:34:41.394Z,10.97
2022-12-26T08:35:37.446Z,10.90
2022-12-26T08:36:37.421Z,10.93
2022-12-26T08:37:38.439Z,11.04
2022-12-26T08:38:37.437Z,11.08
2022-12-26T08:39:37.411Z,11.02
2022-12-26T08:40:44.620Z,11.04
2022-12-26T08:41:39.399Z,11.00
2022-12-26T08:42:44.774Z,11.02
2022-12-26T08:44:24.411Z,10.99
2022-12-26T08:44:39.373Z,10.93
2022-12-26T08:45:37.382Z,11.05
2022-12-26T08:46:37.366Z,10.94
2022-12-26T08:47:37.350Z,11.02
2022-12-26T08:48:37.334Z,11.04
2022-12-26T08:49:37.334Z,11.04
2022-12-26T08:50:40.988Z,11.10
2022-12-26T08:51:38.342Z,11.07
2022-12-26T08:52:37.855Z,11.02
2022-12-26T08:53:37.313Z,11.10
2022-12-26T08:54:37.286Z,11.08
2022-12-26T08:55:37.296Z,11.23
2022-12-26T08:56:37.280Z,11.10
2022-12-26T08:57:37.266Z,11.17
2022-12-26T08:58:37.299Z,11.18
2022-12-26T08:59:37.244Z,11.22
2022-12-26T09:00:37.244Z,11.17
2022-12-26T09:01:37.398Z,11.25
2022-12-26T09:02:37.494Z,11.23
2022-12-26T09:03:37.219Z,11.27
2022-12-26T09:04:37.202Z,11.25
2022-12-26T09:05:37.201Z,11.14
2022-12-26T09:06:37.212Z,11.02
2022-12-26T09:07:37.179Z,10.81
2022-12-26T09:08:37.230Z,10.72
2022-12-26T09:09:37.155Z,10.59
2022-12-26T09:10:37.167Z,10.53
2022-12-26T09:11:37.152Z,10.41
2022-12-26T09:12:37.157Z,10.40
2022-12-26T09:13:37.135Z,10.28
2022-12-26T09:14:37.122Z,10.30
2022-12-26T09:15:37.123Z,10.19
2022-12-26T09:16:40.811Z,10.23
2022-12-26T09:17:39.115Z,10.16
2022-12-26T09:18:37.097Z,10.23
2022-12-26T09:19:37.106Z,10.16
2022-12-26T09:20:37.085Z,10.20
2022-12-26T09:21:37.863Z,10.16
2022-12-26T09:22:37.073Z,10.12
2022-12-26T09:23:37.065Z,10.15
2022-12-26T09:24:37.056Z,10.16
2022-12-26T09:25:37.065Z,10.04
2022-12-26T09:26:37.092Z,10.17
2022-12-26T09:27:37.033Z,10.05
2022-12-26T09:28:37.023Z,10.17
2022-12-26T09:29:37.937Z,10.19
2022-12-26T09:30:37.072Z,10.13
2022-12-26T09:31:37.002Z,10.20
2022-12-26T09:32:37.992Z,10.25
2022-12-26T09:33:36.987Z,10.13
2022-12-26T09:34:36.994Z,10.31
2022-12-26T09:35:36.971Z,10.19
2022-12-26T09:36:37.018Z,10.20
2022-12-26T09:37:36.961Z,10.19
2022-12-26T09:38:36.948Z,10.13
2022-12-26T09:39:36.943Z,10.12
2022-12-26T09:40:36.934Z,10.05
2022-12-26T09:41:36.933Z,10.05
2022-12-26T09:42:36.925Z,10.04
2022-12-26T09:43:37.443Z,10.02
2022-12-26T09:44:36.889Z,10.07
2022-12-26T09:45:36.885Z,10.05
2022-12-26T09:46:37.022Z,10.07
2022-12-26T09:47:36.876Z,9.98
2022-12-26T09:48:36.859Z,9.98
2022-12-26T09:49:36.872Z,9.92
2022-12-26T09:50:42.683Z,9.99
2022-12-26T09:51:39.364Z,10.01
2022-12-26T09:52:36.844Z,9.95
2022-12-26T09:53:36.825Z,9.99
2022-12-26T09:54:36.819Z,9.95
2022-12-26T09:55:36.808Z,10.09
2022-12-26T09:57:01.934Z,9.92
2022-12-26T09:57:38.793Z,9.86
2022-12-26T09:58:36.786Z,9.95
2022-12-26T09:59:36.778Z,9.91
2022-12-26T10:00:36.778Z,9.86
2022-12-26T10:01:36.899Z,9.99
2022-12-26T10:02:36.763Z,9.87
2022-12-26T10:03:36.743Z,9.91
2022-12-26T10:04:36.750Z,9.91
2022-12-26T10:05:36.733Z,9.94
2022-12-26T10:06:36.724Z,10.01
2022-12-26T10:07:36.701Z,9.87
2022-12-26T10:08:36.707Z,9.79
2022-12-26T10:09:36.698Z,9.91
2022-12-26T10:10:36.690Z,9.91
2022-12-26T10:11:36.680Z,9.95
2022-12-26T10:12:36.703Z,9.83
2022-12-26T10:13:36.667Z,9.98
2022-12-26T10:14:36.697Z,10.04
2022-12-26T10:15:36.687Z,9.95
2022-12-26T10:16:37.405Z,10.04
2022-12-26T10:17:36.639Z,10.07
2022-12-26T10:18:36.612Z,10.07
2022-12-26T10:19:36.625Z,10.13
2022-12-26T10:20:36.607Z,10.10
2022-12-26T10:21:36.595Z,10.10
2022-12-26T10:22:36.580Z,10.19
2022-12-26T10:23:36.582Z,10.19
2022-12-26T10:24:36.561Z,10.22
2022-12-26T10:25:36.563Z,10.20
2022-12-26T10:26:36.547Z,10.34
2022-12-26T10:27:38.377Z,10.35
2022-12-26T10:28:36.549Z,10.51
2022-12-26T10:29:36.546Z,10.51
2022-12-26T10:30:36.519Z,10.56
2022-12-26T10:31:36.523Z,10.71
2022-12-26T10:32:36.511Z,10.82
2022-12-26T10:33:36.502Z,10.87
2022-12-26T10:34:36.504Z,11.05
2022-12-26T10:35:36.488Z,11.08
2022-12-26T10:36:36.476Z,11.18
2022-12-26T10:37:36.464Z,11.30
2022-12-26T10:38:38.976Z,11.30
2022-12-26T10:39:36.462Z,11.41
2022-12-26T10:40:36.437Z,11.40
2022-12-26T10:41:36.462Z,11.51
2022-12-26T10:42:37.383Z,11.48
2022-12-26T10:43:36.417Z,11.63
2022-12-26T10:44:36.409Z,11.60
2022-12-26T10:45:36.413Z,11.70
2022-12-26T10:46:36.511Z,11.59
2022-12-26T10:47:37.990Z,11.70
2022-12-26T10:48:36.377Z,11.66
2022-12-26T10:49:36.374Z,11.75
2022-12-26T10:50:37.894Z,11.65
2022-12-26T10:51:36.358Z,11.65
2022-12-26T10:52:36.347Z,11.65
2022-12-26T10:53:36.341Z,11.50
2022-12-26T10:54:36.346Z,11.47
2022-12-26T10:55:36.337Z,11.47
2022-12-26T10:56:36.323Z,11.47
2022-12-26T10:57:36.314Z,11.41
2022-12-26T10:58:36.312Z,11.47
2022-12-26T10:59:36.355Z,11.47
2022-12-26T11:00:36.282Z,11.52
2022-12-26T11:01:36.456Z,11.44
2022-12-26T11:02:37.508Z,11.41
2022-12-26T11:03:39.056Z,11.32
2022-12-26T11:06:09.579Z,11.29
2022-12-26T11:06:38.243Z,11.19
2022-12-26T11:07:36.233Z,11.00
2022-12-26T11:08:40.849Z,11.02
2022-12-26T11:09:38.947Z,10.90
2022-12-26T11:10:37.974Z,10.84
2022-12-26T11:11:36.206Z,10.90
2022-12-26T11:12:36.191Z,10.86
2022-12-26T11:13:36.969Z,10.87
2022-12-26T11:14:36.207Z,10.86
2022-12-26T11:15:36.302Z,10.82
2022-12-26T11:16:36.161Z,10.99
2022-12-26T11:17:36.149Z,11.04
2022-12-26T11:18:36.155Z,11.00
2022-12-26T11:19:36.138Z,11.10
2022-12-26T11:20:36.122Z,11.22
2022-12-26T11:21:36.106Z,11.18
2022-12-26T11:22:37.131Z,11.17
2022-12-26T11:23:36.107Z,11.15
2022-12-26T11:24:36.103Z,11.29
2022-12-26T11:25:36.078Z,11.27
2022-12-26T11:26:36.077Z,11.32
2022-12-26T11:27:36.059Z,11.30
2022-12-26T11:28:37.003Z,11.29
2022-12-26T11:30:42.917Z,11.45
2022-12-26T11:31:42.927Z,11.41
2022-12-26T11:32:42.881Z,11.43
2022-12-26T11:33:42.883Z,11.45
2022-12-26T11:34:42.865Z,11.37
2022-12-26T11:35:49.910Z,11.48
2022-12-26T11:36:48.755Z,11.52
2022-12-26T11:37:43.939Z,11.52
2022-12-26T11:39:55.714Z,11.63
2022-12-26T11:40:56.623Z,11.66
2022-12-26T11:41:55.708Z,11.77
2022-12-26T11:42:55.699Z,11.78
2022-12-26T11:43:55.684Z,11.83
2022-12-26T11:44:58.571Z,11.84
2022-12-26T11:45:56.750Z,11.88
2022-12-26T11:46:57.796Z,11.83
2022-12-26T11:47:56.772Z,11.84
2022-12-26T11:48:56.742Z,11.83
2022-12-26T11:49:56.732Z,11.73
2022-12-26T11:50:56.724Z,11.84
2022-12-26T11:51:59.600Z,11.88
2022-12-26T11:52:57.717Z,11.94
2022-12-26T11:55:04.650Z,11.99
2022-12-26T11:56:04.633Z,11.88
2022-12-26T11:57:05.726Z,12.02
2022-12-26T11:58:05.714Z,12.00
2022-12-26T11:59:05.701Z,11.99
2022-12-26T12:00:15.349Z,12.00
2022-12-26T12:01:05.944Z,12.02
2022-12-26T12:02:05.757Z,11.90
2022-12-26T12:03:05.711Z,11.90
2022-12-26T12:04:05.697Z,11.91
2022-12-26T12:05:09.351Z,11.95
2022-12-26T12:06:05.662Z,11.84
2022-12-26T12:07:05.650Z,12.03
2022-12-26T12:08:05.645Z,11.88
2022-12-26T12:09:06.483Z,11.86
2022-12-26T12:10:38.348Z,12.03
2022-12-26T12:11:05.641Z,11.90
2022-12-26T12:12:05.595Z,12.00
2022-12-26T12:13:06.602Z,12.07
2022-12-26T12:14:06.440Z,12.06
2022-12-26T12:15:05.578Z,12.13
2022-12-26T12:16:05.635Z,12.20
2022-12-26T12:17:05.583Z,12.28
2022-12-26T12:18:05.575Z,12.27
2022-12-26T12:19:05.548Z,12.21
2022-12-26T12:20:05.550Z,12.32
2022-12-26T12:21:05.546Z,12.37
2022-12-26T12:22:05.534Z,12.39
2022-12-26T12:23:05.515Z,12.49
2022-12-26T12:24:05.512Z,12.45
2022-12-26T12:25:05.512Z,12.32
2022-12-26T12:26:05.503Z,12.29
2022-12-26T12:27:06.441Z,12.28
2022-12-26T12:28:05.513Z,12.24
2022-12-26T12:29:06.364Z,12.31
2022-12-26T12:30:05.464Z,12.32
2022-12-26T12:31:05.473Z,12.31
2022-12-26T12:32:05.469Z,12.40
2022-12-26T12:33:05.528Z,12.49
2022-12-26T12:34:05.421Z,12.54
2022-12-26T12:35:05.417Z,12.45
2022-12-26T12:36:05.436Z,12.65
2022-12-26T12:37:06.673Z,12.55
2022-12-26T12:38:05.408Z,12.58
2022-12-26T12:39:05.399Z,12.65
2022-12-26T12:40:05.388Z,12.62
2022-12-26T12:41:05.401Z,12.62
2022-12-26T12:42:05.771Z,12.64
2022-12-26T12:43:06.368Z,12.67
2022-12-26T12:44:05.351Z,12.62
2022-12-26T12:45:05.334Z,12.67
2022-12-26T12:46:05.369Z,12.70
2022-12-26T12:47:05.340Z,12.57
2022-12-26T12:48:05.325Z,12.67
2022-12-26T12:49:05.306Z,12.67
2022-12-26T12:50:05.310Z,12.67
2022-12-26T12:51:05.289Z,12.60
2022-12-26T12:52:05.303Z,12.64
2022-12-26T12:53:05.287Z,12.64
2022-12-26T12:54:05.290Z,12.43
2022-12-26T12:55:05.261Z,12.35
2022-12-26T12:56:05.260Z,12.20
2022-12-26T12:57:05.247Z,12.27
2022-12-26T12:58:05.240Z,12.37
2022-12-26T12:59:05.221Z,12.29
2022-12-26T13:00:05.220Z,12.35
2022-12-26T13:01:05.323Z,12.42
2022-12-26T13:02:09.656Z,12.45